sensor_id;sensor_type;location;lat;lon;timestamp;P1;durP1;ratioP1;P2;durP2;ratioP2
76107;SDS011;64834;52.516;10.528;2022-12-29T00:01:44;1.67;;;0.90;;
76107;SDS011;64834;52.516;10.528;2022-12-29T00:04:11;1.60;;;1.00;;
76107;SDS011;64834;52.516;10.528;2022-12-29T00:06:38;2.20;;;1.55;;
76107;SDS011;64834;52.516;10.528;2022-12-29T00:09:03;1.90;;;1.02;;
76107;SDS011;64834;52.516;10.528;2022-12-29T00:11:28;1.80;;;0.80;;
76107;SDS011;64834;52.516;10.528;2022-12-29T00:13:54;1.88;;;1.00;;
76107;SDS011;64834;52.516;10.528;2022-12-29T00:16:40;4.45;;;1.20;;
76107;SDS011;64834;52.516;10.528;2022-12-29T00:19:06;2.58;;;1.00;;
76107;SDS011;64834;52.516;10.528;2022-12-29T00:21:52;2.70;;;1.00;;
76107;SDS011;64834;52.516;10.528;2022-12-29T00:24:35;2.33;;;0.90;;
76107;SDS011;64834;52.516;10.528;2022-12-29T00:27:19;3.00;;;0.93;;
76107;SDS011;64834;52.516;10.528;2022-12-29T00:30:07;2.50;;;0.90;;
76107;SDS011;64834;52.516;10.528;2022-12-29T00:32:55;2.00;;;1.08;;
76107;SDS011;64834;52.516;10.528;2022-12-29T00:35:42;1.50;;;0.73;;
76107;SDS011;64834;52.516;10.528;2022-12-29T00:38:12;1.70;;;1.00;;
76107;SDS011;64834;52.516;10.528;2022-12-29T00:40:57;3.75;;;1.00;;
76107;SDS011;64834;52.516;10.528;2022-12-29T00:43:40;2.40;;;1.00;;
76107;SDS011;64834;52.516;10.528;2022-12-29T00:46:24;2.03;;;0.93;;
76107;SDS011;64834;52.516;10.528;2022-12-29T00:48:49;3.45;;;1.02;;
76107;SDS011;64834;52.516;10.528;2022-12-29T00:51:33;1.95;;;0.82;;
76107;SDS011;64834;52.516;10.528;2022-12-29T00:53:59;1.70;;;1.00;;
76107;SDS011;64834;52.516;10.528;2022-12-29T00:56:24;2.63;;;0.80;;
76107;SDS011;64834;52.516;10.528;2022-12-29T00:58:49;1.58;;;0.80;;
76107;SDS011;64834;52.516;10.528;2022-12-29T01:01:15;2.33;;;0.95;;
76107;SDS011;64834;52.516;10.528;2022-12-29T01:03:40;1.98;;;0.82;;
76107;SDS011;64834;52.516;10.528;2022-12-29T01:06:07;2.08;;;1.02;;
76107;SDS011;64834;52.516;10.528;2022-12-29T01:08:34;3.08;;;1.10;;
76107;SDS011;64834;52.516;10.528;2022-12-29T01:11:00;3.10;;;1.02;;
76107;SDS011;64834;52.516;10.528;2022-12-29T01:13:31;1.60;;;0.80;;
76107;SDS011;64834;52.516;10.528;2022-12-29T01:15:57;1.90;;;0.95;;
76107;SDS011;64834;52.516;10.528;2022-12-29T01:18:23;2.13;;;0.90;;
76107;SDS011;64834;52.516;10.528;2022-12-29T01:20:49;2.80;;;1.23;;
76107;SDS011;64834;52.516;10.528;2022-12-29T01:23:14;2.03;;;0.80;;
76107;SDS011;64834;52.516;10.528;2022-12-29T01:25:40;2.55;;;1.23;;
76107;SDS011;64834;52.516;10.528;2022-12-29T01:28:05;1.85;;;0.80;;
76107;SDS011;64834;52.516;10.528;2022-12-29T01:30:33;2.42;;;1.00;;
76107;SDS011;64834;52.516;10.528;2022-12-29T01:33:01;1.67;;;0.90;;
76107;SDS011;64834;52.516;10.528;2022-12-29T01:35:26;2.17;;;1.00;;
76107;SDS011;64834;52.516;10.528;2022-12-29T01:37:52;2.28;;;0.90;;
76107;SDS011;64834;52.516;10.528;2022-12-29T01:40:17;2.10;;;0.70;;
76107;SDS011;64834;52.516;10.528;2022-12-29T01:42:43;2.00;;;0.85;;
76107;SDS011;64834;52.516;10.528;2022-12-29T01:45:09;1.80;;;0.80;;
76107;SDS011;64834;52.516;10.528;2022-12-29T01:50:18;1.90;;;0.60;;
76107;SDS011;64834;52.516;10.528;2022-12-29T01:52:52;1.25;;;0.70;;
76107;SDS011;64834;52.516;10.528;2022-12-29T01:55:23;1.55;;;0.80;;
76107;SDS011;64834;52.516;10.528;2022-12-29T01:57:50;1.92;;;0.70;;
76107;SDS011;64834;52.516;10.528;2022-12-29T02:00:17;2.03;;;0.82;;
76107;SDS011;64834;52.516;10.528;2022-12-29T02:02:48;3.17;;;1.20;;
76107;SDS011;64834;52.516;10.528;2022-12-29T02:08:09;2.10;;;0.85;;
76107;SDS011;64834;52.516;10.528;2022-12-29T02:10:36;1.70;;;0.90;;
76107;SDS011;64834;52.516;10.528;2022-12-29T02:13:04;1.77;;;0.80;;
76107;SDS011;64834;52.516;10.528;2022-12-29T02:15:44;1.73;;;0.90;;
76107;SDS011;64834;52.516;10.528;2022-12-29T02:18:22;2.85;;;0.90;;
76107;SDS011;64834;52.516;10.528;2022-12-29T02:21:03;2.03;;;0.80;;
76107;SDS011;64834;52.516;10.528;2022-12-29T02:26:33;2.28;;;0.80;;
76107;SDS011;64834;52.516;10.528;2022-12-29T02:32:27;3.30;;;1.10;;
76107;SDS011;64834;52.516;10.528;2022-12-29T02:35:29;2.63;;;1.00;;
76107;SDS011;64834;52.516;10.528;2022-12-29T02:38:04;1.98;;;1.10;;
76107;SDS011;64834;52.516;10.528;2022-12-29T02:40:46;2.90;;;1.10;;
76107;SDS011;64834;52.516;10.528;2022-12-29T02:43:26;2.35;;;0.80;;
76107;SDS011;64834;52.516;10.528;2022-12-29T02:45:57;2.47;;;1.17;;
76107;SDS011;64834;52.516;10.528;2022-12-29T02:48:31;3.20;;;0.98;;
76107;SDS011;64834;52.516;10.528;2022-12-29T02:51:25;3.20;;;0.98;;
76107;SDS011;64834;52.516;10.528;2022-12-29T02:53:55;2.25;;;1.05;;
76107;SDS011;64834;52.516;10.528;2022-12-29T02:56:40;3.70;;;1.15;;
76107;SDS011;64834;52.516;10.528;2022-12-29T02:59:05;2.35;;;0.88;;
76107;SDS011;64834;52.516;10.528;2022-12-29T03:04:04;2.77;;;1.03;;
76107;SDS011;64834;52.516;10.528;2022-12-29T03:06:46;2.05;;;1.20;;
76107;SDS011;64834;52.516;10.528;2022-12-29T03:09:26;2.25;;;1.02;;
76107;SDS011;64834;52.516;10.528;2022-12-29T03:12:12;1.88;;;1.00;;
76107;SDS011;64834;52.516;10.528;2022-12-29T03:15:20;2.08;;;0.90;;
76107;SDS011;64834;52.516;10.528;2022-12-29T03:18:21;2.13;;;1.10;;
76107;SDS011;64834;52.516;10.528;2022-12-29T03:23:19;2.83;;;1.10;;
76107;SDS011;64834;52.516;10.528;2022-12-29T03:25:47;2.78;;;1.38;;
76107;SDS011;64834;52.516;10.528;2022-12-29T03:28:20;2.05;;;0.98;;
76107;SDS011;64834;52.516;10.528;2022-12-29T03:30:49;2.22;;;0.98;;
76107;SDS011;64834;52.516;10.528;2022-12-29T03:33:16;1.65;;;0.82;;
76107;SDS011;64834;52.516;10.528;2022-12-29T03:35:46;1.95;;;0.90;;
76107;SDS011;64834;52.516;10.528;2022-12-29T03:38:17;1.65;;;0.85;;
76107;SDS011;64834;52.516;10.528;2022-12-29T03:40:50;2.25;;;1.23;;
76107;SDS011;64834;52.516;10.528;2022-12-29T03:43:21;2.00;;;1.00;;
76107;SDS011;64834;52.516;10.528;2022-12-29T03:45:47;3.15;;;1.40;;
76107;SDS011;64834;52.516;10.528;2022-12-29T03:48:12;2.42;;;1.00;;
76107;SDS011;64834;52.516;10.528;2022-12-29T03:50:37;2.38;;;0.98;;
76107;SDS011;64834;52.516;10.528;2022-12-29T03:53:03;3.08;;;1.33;;
76107;SDS011;64834;52.516;10.528;2022-12-29T03:55:28;1.90;;;1.00;;
76107;SDS011;64834;52.516;10.528;2022-12-29T03:57:54;2.20;;;1.25;;
76107;SDS011;64834;52.516;10.528;2022-12-29T04:00:19;2.05;;;0.90;;
76107;SDS011;64834;52.516;10.528;2022-12-29T04:02:44;2.40;;;0.73;;
76107;SDS011;64834;52.516;10.528;2022-12-29T04:05:10;2.20;;;0.90;;
76107;SDS011;64834;52.516;10.528;2022-12-29T04:07:35;3.72;;;1.23;;
76107;SDS011;64834;52.516;10.528;2022-12-29T04:10:00;1.98;;;0.95;;
76107;SDS011;64834;52.516;10.528;2022-12-29T04:12:26;3.60;;;1.00;;
76107;SDS011;64834;52.516;10.528;2022-12-29T04:14:51;1.88;;;0.70;;
76107;SDS011;64834;52.516;10.528;2022-12-29T04:17:16;2.00;;;0.98;;
76107;SDS011;64834;52.516;10.528;2022-12-29T04:19:41;2.08;;;1.00;;
76107;SDS011;64834;52.516;10.528;2022-12-29T04:22:07;2.90;;;1.05;;
76107;SDS011;64834;52.516;10.528;2022-12-29T04:24:32;2.47;;;0.90;;
76107;SDS011;64834;52.516;10.528;2022-12-29T04:26:57;2.10;;;1.00;;
76107;SDS011;64834;52.516;10.528;2022-12-29T04:29:23;1.90;;;1.02;;
76107;SDS011;64834;52.516;10.528;2022-12-29T04:31:48;1.85;;;0.98;;
76107;SDS011;64834;52.516;10.528;2022-12-29T04:34:13;2.13;;;1.10;;
76107;SDS011;64834;52.516;10.528;2022-12-29T04:36:39;2.88;;;1.63;;
76107;SDS011;64834;52.516;10.528;2022-12-29T04:41:32;2.50;;;0.95;;
76107;SDS011;64834;52.516;10.528;2022-12-29T04:43:58;3.50;;;0.95;;
76107;SDS011;64834;52.516;10.528;2022-12-29T04:46:23;2.55;;;1.05;;
76107;SDS011;64834;52.516;10.528;2022-12-29T04:48:48;2.78;;;1.10;;
76107;SDS011;64834;52.516;10.528;2022-12-29T04:51:14;4.18;;;1.30;;
76107;SDS011;64834;52.516;10.528;2022-12-29T04:53:39;1.92;;;0.80;;
76107;SDS011;64834;52.516;10.528;2022-12-29T04:56:05;2.72;;;1.10;;
76107;SDS011;64834;52.516;10.528;2022-12-29T04:58:30;2.00;;;0.88;;
76107;SDS011;64834;52.516;10.528;2022-12-29T05:00:55;3.53;;;0.95;;
76107;SDS011;64834;52.516;10.528;2022-12-29T05:03:21;2.53;;;0.80;;
76107;SDS011;64834;52.516;10.528;2022-12-29T05:05:46;2.58;;;0.98;;
76107;SDS011;64834;52.516;10.528;2022-12-29T05:08:11;1.60;;;0.93;;
76107;SDS011;64834;52.516;10.528;2022-12-29T05:10:37;1.77;;;0.80;;
76107;SDS011;64834;52.516;10.528;2022-12-29T05:13:02;2.80;;;1.25;;
76107;SDS011;64834;52.516;10.528;2022-12-29T05:15:27;2.10;;;0.80;;
76107;SDS011;64834;52.516;10.528;2022-12-29T05:17:53;1.90;;;0.77;;
76107;SDS011;64834;52.516;10.528;2022-12-29T05:20:18;1.27;;;0.73;;
76107;SDS011;64834;52.516;10.528;2022-12-29T05:22:43;2.80;;;1.02;;
76107;SDS011;64834;52.516;10.528;2022-12-29T05:25:09;1.65;;;0.90;;
76107;SDS011;64834;52.516;10.528;2022-12-29T05:27:34;2.70;;;0.75;;
76107;SDS011;64834;52.516;10.528;2022-12-29T05:29:59;1.30;;;0.82;;
76107;SDS011;64834;52.516;10.528;2022-12-29T05:32:25;2.58;;;0.80;;
76107;SDS011;64834;52.516;10.528;2022-12-29T05:34:50;1.02;;;0.40;;
76107;SDS011;64834;52.516;10.528;2022-12-29T05:37:15;1.92;;;0.90;;
76107;SDS011;64834;52.516;10.528;2022-12-29T05:39:41;1.73;;;0.73;;
76107;SDS011;64834;52.516;10.528;2022-12-29T05:42:06;1.98;;;0.50;;
76107;SDS011;64834;52.516;10.528;2022-12-29T05:44:31;1.50;;;0.73;;
76107;SDS011;64834;52.516;10.528;2022-12-29T05:46:57;3.25;;;0.98;;
76107;SDS011;64834;52.516;10.528;2022-12-29T05:49:22;1.13;;;0.50;;
76107;SDS011;64834;52.516;10.528;2022-12-29T05:51:47;1.48;;;0.60;;
76107;SDS011;64834;52.516;10.528;2022-12-29T05:54:13;1.42;;;0.60;;
76107;SDS011;64834;52.516;10.528;2022-12-29T05:56:38;3.60;;;0.68;;
76107;SDS011;64834;52.516;10.528;2022-12-29T05:59:03;1.58;;;0.70;;
76107;SDS011;64834;52.516;10.528;2022-12-29T06:01:29;2.72;;;0.60;;
76107;SDS011;64834;52.516;10.528;2022-12-29T06:03:54;1.63;;;0.60;;
76107;SDS011;64834;52.516;10.528;2022-12-29T06:06:19;2.22;;;0.90;;
76107;SDS011;64834;52.516;10.528;2022-12-29T06:08:45;0.98;;;0.40;;
76107;SDS011;64834;52.516;10.528;2022-12-29T06:11:10;1.55;;;0.50;;
76107;SDS011;64834;52.516;10.528;2022-12-29T06:13:36;1.85;;;0.50;;
76107;SDS011;64834;52.516;10.528;2022-12-29T06:16:01;1.33;;;0.50;;
76107;SDS011;64834;52.516;10.528;2022-12-29T06:18:26;1.63;;;0.50;;
76107;SDS011;64834;52.516;10.528;2022-12-29T06:20:52;1.55;;;0.43;;
76107;SDS011;64834;52.516;10.528;2022-12-29T06:23:17;1.52;;;0.50;;
76107;SDS011;64834;52.516;10.528;2022-12-29T06:25:43;0.95;;;0.47;;
76107;SDS011;64834;52.516;10.528;2022-12-29T06:28:08;1.52;;;0.60;;
76107;SDS011;64834;52.516;10.528;2022-12-29T06:30:35;0.88;;;0.25;;
76107;SDS011;64834;52.516;10.528;2022-12-29T06:33:01;1.35;;;0.60;;
76107;SDS011;64834;52.516;10.528;2022-12-29T06:35:26;1.42;;;0.70;;
76107;SDS011;64834;52.516;10.528;2022-12-29T06:37:51;0.80;;;0.40;;
76107;SDS011;64834;52.516;10.528;2022-12-29T06:40:17;1.45;;;0.50;;
76107;SDS011;64834;52.516;10.528;2022-12-29T06:42:42;1.05;;;0.52;;
76107;SDS011;64834;52.516;10.528;2022-12-29T06:45:08;1.17;;;0.75;;
76107;SDS011;64834;52.516;10.528;2022-12-29T06:47:34;1.50;;;0.40;;
76107;SDS011;64834;52.516;10.528;2022-12-29T06:50:00;1.00;;;0.47;;
76107;SDS011;64834;52.516;10.528;2022-12-29T06:52:25;1.17;;;0.50;;
76107;SDS011;64834;52.516;10.528;2022-12-29T06:54:50;1.45;;;0.50;;
76107;SDS011;64834;52.516;10.528;2022-12-29T06:57:16;1.50;;;0.50;;
76107;SDS011;64834;52.516;10.528;2022-12-29T06:59:41;1.50;;;0.40;;
76107;SDS011;64834;52.516;10.528;2022-12-29T07:02:06;1.88;;;0.40;;
76107;SDS011;64834;52.516;10.528;2022-12-29T07:04:33;1.73;;;0.57;;
76107;SDS011;64834;52.516;10.528;2022-12-29T07:06:58;2.90;;;0.30;;
76107;SDS011;64834;52.516;10.528;2022-12-29T07:09:23;0.60;;;0.32;;
76107;SDS011;64834;52.516;10.528;2022-12-29T07:11:49;0.75;;;0.30;;
76107;SDS011;64834;52.516;10.528;2022-12-29T07:14:14;2.90;;;0.75;;
76107;SDS011;64834;52.516;10.528;2022-12-29T07:16:39;0.75;;;0.40;;
76107;SDS011;64834;52.516;10.528;2022-12-29T07:19:05;0.82;;;0.30;;
76107;SDS011;64834;52.516;10.528;2022-12-29T07:21:30;1.13;;;0.40;;
76107;SDS011;64834;52.516;10.528;2022-12-29T07:23:56;1.48;;;0.38;;
76107;SDS011;64834;52.516;10.528;2022-12-29T07:26:21;1.30;;;0.52;;
76107;SDS011;64834;52.516;10.528;2022-12-29T07:28:46;1.25;;;0.55;;
76107;SDS011;64834;52.516;10.528;2022-12-29T07:31:19;1.00;;;0.30;;
76107;SDS011;64834;52.516;10.528;2022-12-29T07:33:46;1.58;;;0.47;;
76107;SDS011;64834;52.516;10.528;2022-12-29T07:36:12;0.85;;;0.30;;
76107;SDS011;64834;52.516;10.528;2022-12-29T07:38:39;1.23;;;0.32;;
76107;SDS011;64834;52.516;10.528;2022-12-29T07:41:04;1.08;;;0.50;;
76107;SDS011;64834;52.516;10.528;2022-12-29T07:43:30;0.63;;;0.17;;
76107;SDS011;64834;52.516;10.528;2022-12-29T07:45:55;0.73;;;0.30;;
76107;SDS011;64834;52.516;10.528;2022-12-29T07:48:20;1.13;;;0.45;;
76107;SDS011;64834;52.516;10.528;2022-12-29T07:50:46;0.45;;;0.20;;
76107;SDS011;64834;52.516;10.528;2022-12-29T07:53:11;0.73;;;0.40;;
76107;SDS011;64834;52.516;10.528;2022-12-29T07:55:37;0.93;;;0.43;;
76107;SDS011;64834;52.516;10.528;2022-12-29T07:58:02;0.50;;;0.30;;
76107;SDS011;64834;52.516;10.528;2022-12-29T08:00:28;1.52;;;0.20;;
76107;SDS011;64834;52.516;10.528;2022-12-29T08:02:53;0.68;;;0.20;;
76107;SDS011;64834;52.516;10.528;2022-12-29T08:05:18;0.82;;;0.20;;
76107;SDS011;64834;52.516;10.528;2022-12-29T08:07:44;0.80;;;0.40;;
76107;SDS011;64834;52.516;10.528;2022-12-29T08:10:11;0.65;;;0.20;;
76107;SDS011;64834;52.516;10.528;2022-12-29T08:12:37;1.05;;;0.10;;
76107;SDS011;64834;52.516;10.528;2022-12-29T08:15:04;0.10;;;0.10;;
76107;SDS011;64834;52.516;10.528;2022-12-29T08:17:29;0.73;;;0.25;;
76107;SDS011;64834;52.516;10.528;2022-12-29T08:19:55;0.40;;;0.25;;
76107;SDS011;64834;52.516;10.528;2022-12-29T08:22:20;0.80;;;0.10;;
76107;SDS011;64834;52.516;10.528;2022-12-29T08:24:45;1.55;;;0.10;;
76107;SDS011;64834;52.516;10.528;2022-12-29T08:27:11;0.50;;;0.15;;
76107;SDS011;64834;52.516;10.528;2022-12-29T08:29:36;0.70;;;0.22;;
76107;SDS011;64834;52.516;10.528;2022-12-29T08:32:01;0.22;;;0.10;;
76107;SDS011;64834;52.516;10.528;2022-12-29T08:34:27;0.85;;;0.10;;
76107;SDS011;64834;52.516;10.528;2022-12-29T08:36:52;1.70;;;0.10;;
76107;SDS011;64834;52.516;10.528;2022-12-29T08:39:17;0.68;;;0.13;;
76107;SDS011;64834;52.516;10.528;2022-12-29T08:41:43;0.52;;;0.17;;
76107;SDS011;64834;52.516;10.528;2022-12-29T08:44:08;0.45;;;0.13;;
76107;SDS011;64834;52.516;10.528;2022-12-29T08:46:33;0.60;;;0.10;;
76107;SDS011;64834;52.516;10.528;2022-12-29T08:48:59;0.20;;;0.10;;
76107;SDS011;64834;52.516;10.528;2022-12-29T08:51:24;0.40;;;0.13;;
76107;SDS011;64834;52.516;10.528;2022-12-29T08:53:49;0.77;;;0.17;;
76107;SDS011;64834;52.516;10.528;2022-12-29T08:56:15;0.90;;;0.30;;
76107;SDS011;64834;52.516;10.528;2022-12-29T08:58:40;1.85;;;0.80;;
76107;SDS011;64834;52.516;10.528;2022-12-29T09:01:06;0.70;;;0.20;;
76107;SDS011;64834;52.516;10.528;2022-12-29T09:03:31;0.77;;;0.30;;
76107;SDS011;64834;52.516;10.528;2022-12-29T09:05:57;0.60;;;0.20;;
76107;SDS011;64834;52.516;10.528;2022-12-29T09:08:22;2.08;;;0.40;;
76107;SDS011;64834;52.516;10.528;2022-12-29T09:10:48;0.57;;;0.20;;
76107;SDS011;64834;52.516;10.528;2022-12-29T09:13:14;0.80;;;0.35;;
76107;SDS011;64834;52.516;10.528;2022-12-29T09:15:40;3.45;;;0.50;;
76107;SDS011;64834;52.516;10.528;2022-12-29T09:18:06;1.08;;;0.47;;
76107;SDS011;64834;52.516;10.528;2022-12-29T09:20:32;1.05;;;0.32;;
76107;SDS011;64834;52.516;10.528;2022-12-29T09:22:57;3.25;;;0.30;;
76107;SDS011;64834;52.516;10.528;2022-12-29T09:25:23;0.57;;;0.22;;
76107;SDS011;64834;52.516;10.528;2022-12-29T09:27:49;1.30;;;0.40;;
76107;SDS011;64834;52.516;10.528;2022-12-29T09:32:42;0.82;;;0.20;;
76107;SDS011;64834;52.516;10.528;2022-12-29T09:35:08;1.33;;;0.35;;
76107;SDS011;64834;52.516;10.528;2022-12-29T09:37:33;3.25;;;0.50;;
76107;SDS011;64834;52.516;10.528;2022-12-29T09:39:58;1.20;;;0.45;;
76107;SDS011;64834;52.516;10.528;2022-12-29T09:45:21;1.13;;;0.57;;
76107;SDS011;64834;52.516;10.528;2022-12-29T09:47:53;1.20;;;1.02;;
76107;SDS011;64834;52.516;10.528;2022-12-29T09:50:28;1.80;;;0.73;;
76107;SDS011;64834;52.516;10.528;2022-12-29T09:53:03;2.83;;;1.10;;
76107;SDS011;64834;52.516;10.528;2022-12-29T09:55:35;2.15;;;0.85;;
76107;SDS011;64834;52.516;10.528;2022-12-29T09:58:10;1.30;;;0.60;;
76107;SDS011;64834;52.516;10.528;2022-12-29T10:00:48;1.35;;;0.70;;
76107;SDS011;64834;52.516;10.528;2022-12-29T10:03:20;1.33;;;0.70;;
76107;SDS011;64834;52.516;10.528;2022-12-29T10:19:25;1.85;;;0.70;;
76107;SDS011;64834;52.516;10.528;2022-12-29T10:22:07;1.50;;;0.50;;
76107;SDS011;64834;52.516;10.528;2022-12-29T10:24:42;1.75;;;0.60;;
76107;SDS011;64834;52.516;10.528;2022-12-29T10:27:12;0.93;;;0.50;;
76107;SDS011;64834;52.516;10.528;2022-12-29T10:29:41;2.22;;;0.60;;
76107;SDS011;64834;52.516;10.528;2022-12-29T10:32:17;1.50;;;0.80;;
76107;SDS011;64834;52.516;10.528;2022-12-29T10:34:53;1.55;;;0.70;;
76107;SDS011;64834;52.516;10.528;2022-12-29T10:37:31;1.52;;;0.57;;
76107;SDS011;64834;52.516;10.528;2022-12-29T10:40:15;1.98;;;0.70;;
76107;SDS011;64834;52.516;10.528;2022-12-29T10:42:46;2.17;;;0.88;;
76107;SDS011;64834;52.516;10.528;2022-12-29T10:45:17;1.25;;;0.60;;
76107;SDS011;64834;52.516;10.528;2022-12-29T10:48:01;1.50;;;0.52;;
76107;SDS011;64834;52.516;10.528;2022-12-29T10:50:30;1.20;;;0.55;;
76107;SDS011;64834;52.516;10.528;2022-12-29T10:52:56;1.42;;;0.80;;
76107;SDS011;64834;52.516;10.528;2022-12-29T10:55:26;1.88;;;0.70;;
76107;SDS011;64834;52.516;10.528;2022-12-29T10:57:55;1.08;;;0.60;;
76107;SDS011;64834;52.516;10.528;2022-12-29T11:00:27;1.77;;;0.45;;
76107;SDS011;64834;52.516;10.528;2022-12-29T11:03:00;2.00;;;0.63;;
76107;SDS011;64834;52.516;10.528;2022-12-29T11:05:55;1.25;;;0.63;;
76107;SDS011;64834;52.516;10.528;2022-12-29T11:08:27;1.58;;;0.60;;
76107;SDS011;64834;52.516;10.528;2022-12-29T11:11:04;2.30;;;0.73;;
76107;SDS011;64834;52.516;10.528;2022-12-29T11:13:32;2.17;;;0.55;;
76107;SDS011;64834;52.516;10.528;2022-12-29T11:15:59;3.00;;;0.70;;
76107;SDS011;64834;52.516;10.528;2022-12-29T11:18:26;1.67;;;0.70;;
76107;SDS011;64834;52.516;10.528;2022-12-29T11:20:58;2.90;;;0.68;;
76107;SDS011;64834;52.516;10.528;2022-12-29T11:23:30;1.77;;;0.52;;
76107;SDS011;64834;52.516;10.528;2022-12-29T11:26:11;1.88;;;0.63;;
76107;SDS011;64834;52.516;10.528;2022-12-29T11:28:40;3.08;;;0.85;;
76107;SDS011;64834;52.516;10.528;2022-12-29T11:31:07;1.25;;;0.65;;
76107;SDS011;64834;52.516;10.528;2022-12-29T11:33:37;1.48;;;0.70;;
76107;SDS011;64834;52.516;10.528;2022-12-29T11:36:08;3.08;;;0.70;;
76107;SDS011;64834;52.516;10.528;2022-12-29T11:38:39;2.10;;;0.52;;
76107;SDS011;64834;52.516;10.528;2022-12-29T11:41:09;1.33;;;0.43;;
76107;SDS011;64834;52.516;10.528;2022-12-29T11:43:39;1.70;;;0.60;;
76107;SDS011;64834;52.516;10.528;2022-12-29T11:46:12;1.55;;;0.63;;
76107;SDS011;64834;52.516;10.528;2022-12-29T11:48:41;1.20;;;0.55;;
76107;SDS011;64834;52.516;10.528;2022-12-29T11:51:07;2.80;;;0.50;;
76107;SDS011;64834;52.516;10.528;2022-12-29T11:56:06;3.03;;;0.63;;
76107;SDS011;64834;52.516;10.528;2022-12-29T11:58:36;2.03;;;0.65;;
76107;SDS011;64834;52.516;10.528;2022-12-29T12:01:04;2.15;;;0.80;;
76107;SDS011;64834;52.516;10.528;2022-12-29T12:03:35;1.95;;;0.55;;
76107;SDS011;64834;52.516;10.528;2022-12-29T12:06:08;1.48;;;0.50;;
76107;SDS011;64834;52.516;10.528;2022-12-29T12:08:39;2.97;;;0.60;;
76107;SDS011;64834;52.516;10.528;2022-12-29T12:11:18;1.38;;;0.90;;
76107;SDS011;64834;52.516;10.528;2022-12-29T12:13:55;2.42;;;0.60;;
76107;SDS011;64834;52.516;10.528;2022-12-29T12:16:28;3.17;;;0.60;;
76107;SDS011;64834;52.516;10.528;2022-12-29T12:19:02;2.78;;;0.95;;
76107;SDS011;64834;52.516;10.528;2022-12-29T12:21:40;1.48;;;0.30;;
76107;SDS011;64834;52.516;10.528;2022-12-29T12:26:51;2.03;;;0.65;;
76107;SDS011;64834;52.516;10.528;2022-12-29T12:29:46;2.33;;;0.50;;
76107;SDS011;64834;52.516;10.528;2022-12-29T12:32:20;2.63;;;0.68;;
76107;SDS011;64834;52.516;10.528;2022-12-29T12:34:59;1.33;;;0.40;;
76107;SDS011;64834;52.516;10.528;2022-12-29T12:37:32;2.45;;;0.50;;
76107;SDS011;64834;52.516;10.528;2022-12-29T12:40:22;1.85;;;0.38;;
76107;SDS011;64834;52.516;10.528;2022-12-29T12:48:29;2.05;;;0.40;;
76107;SDS011;64834;52.516;10.528;2022-12-29T12:51:12;1.92;;;0.22;;
76107;SDS011;64834;52.516;10.528;2022-12-29T12:59:30;2.72;;;0.50;;
76107;SDS011;64834;52.516;10.528;2022-12-29T13:02:28;2.72;;;0.30;;
76107;SDS011;64834;52.516;10.528;2022-12-29T13:08:04;1.48;;;0.25;;
76107;SDS011;64834;52.516;10.528;2022-12-29T13:10:50;2.13;;;0.40;;
76107;SDS011;64834;52.516;10.528;2022-12-29T13:19:05;0.88;;;0.40;;
76107;SDS011;64834;52.516;10.528;2022-12-29T13:24:50;3.65;;;0.70;;
76107;SDS011;64834;52.516;10.528;2022-12-29T13:27:44;2.45;;;0.47;;
76107;SDS011;64834;52.516;10.528;2022-12-29T13:30:19;1.92;;;0.40;;
76107;SDS011;64834;52.516;10.528;2022-12-29T13:35:42;1.05;;;0.55;;
76107;SDS011;64834;52.516;10.528;2022-12-29T13:41:21;1.70;;;0.30;;
76107;SDS011;64834;52.516;10.528;2022-12-29T13:43:49;1.42;;;0.32;;
76107;SDS011;64834;52.516;10.528;2022-12-29T13:46:18;1.27;;;0.30;;
76107;SDS011;64834;52.516;10.528;2022-12-29T13:48:56;2.22;;;0.55;;
76107;SDS011;64834;52.516;10.528;2022-12-29T13:51:25;2.53;;;0.85;;
76107;SDS011;64834;52.516;10.528;2022-12-29T13:54:00;2.40;;;0.68;;
76107;SDS011;64834;52.516;10.528;2022-12-29T13:56:41;2.38;;;0.60;;
76107;SDS011;64834;52.516;10.528;2022-12-29T13:59:17;0.90;;;0.30;;
76107;SDS011;64834;52.516;10.528;2022-12-29T14:01:53;2.33;;;0.40;;
76107;SDS011;64834;52.516;10.528;2022-12-29T14:04:24;1.80;;;0.60;;
76107;SDS011;64834;52.516;10.528;2022-12-29T14:07:02;2.70;;;0.60;;
76107;SDS011;64834;52.516;10.528;2022-12-29T14:09:40;1.52;;;0.40;;
76107;SDS011;64834;52.516;10.528;2022-12-29T14:12:28;2.22;;;0.60;;
76107;SDS011;64834;52.516;10.528;2022-12-29T14:15:01;3.80;;;0.70;;
76107;SDS011;64834;52.516;10.528;2022-12-29T14:17:40;1.23;;;0.30;;
76107;SDS011;64834;52.516;10.528;2022-12-29T14:20:15;3.35;;;0.80;;
76107;SDS011;64834;52.516;10.528;2022-12-29T14:23:25;2.65;;;0.52;;
76107;SDS011;64834;52.516;10.528;2022-12-29T14:33:50;1.87;;;0.63;;
76107;SDS011;64834;52.516;10.528;2022-12-29T14:42:35;2.55;;;0.52;;
76107;SDS011;64834;52.516;10.528;2022-12-29T14:44:51;1.85;;;0.80;;
76107;SDS011;64834;52.516;10.528;2022-12-29T14:47:25;2.65;;;0.40;;
76107;SDS011;64834;52.516;10.528;2022-12-29T14:53:04;2.03;;;0.68;;
76107;SDS011;64834;52.516;10.528;2022-12-29T14:55:40;2.97;;;0.70;;
76107;SDS011;64834;52.516;10.528;2022-12-29T15:01:45;5.13;;;0.80;;
76107;SDS011;64834;52.516;10.528;2022-12-29T15:04:06;2.22;;;0.80;;
76107;SDS011;64834;52.516;10.528;2022-12-29T15:06:40;3.97;;;0.77;;
76107;SDS011;64834;52.516;10.528;2022-12-29T15:09:16;5.38;;;1.00;;
76107;SDS011;64834;52.516;10.528;2022-12-29T15:11:53;1.95;;;0.65;;
76107;SDS011;64834;52.516;10.528;2022-12-29T15:16:57;3.88;;;1.00;;
76107;SDS011;64834;52.516;10.528;2022-12-29T15:19:23;2.88;;;0.63;;
76107;SDS011;64834;52.516;10.528;2022-12-29T15:21:50;3.85;;;0.70;;
76107;SDS011;64834;52.516;10.528;2022-12-29T15:24:17;3.28;;;1.10;;
76107;SDS011;64834;52.516;10.528;2022-12-29T15:26:44;4.70;;;1.10;;
76107;SDS011;64834;52.516;10.528;2022-12-29T15:32:15;4.05;;;0.80;;
76107;SDS011;64834;52.516;10.528;2022-12-29T15:34:41;3.42;;;0.90;;
76107;SDS011;64834;52.516;10.528;2022-12-29T15:37:16;4.82;;;1.10;;
76107;SDS011;64834;52.516;10.528;2022-12-29T15:39:43;4.65;;;1.00;;
76107;SDS011;64834;52.516;10.528;2022-12-29T15:42:18;5.18;;;0.93;;
76107;SDS011;64834;52.516;10.528;2022-12-29T15:44:50;4.45;;;1.00;;
76107;SDS011;64834;52.516;10.528;2022-12-29T15:47:17;5.18;;;1.05;;
76107;SDS011;64834;52.516;10.528;2022-12-29T15:49:44;6.28;;;1.23;;
76107;SDS011;64834;52.516;10.528;2022-12-29T15:52:17;4.50;;;0.82;;
76107;SDS011;64834;52.516;10.528;2022-12-29T15:54:44;1.70;;;0.73;;
76107;SDS011;64834;52.516;10.528;2022-12-29T15:57:23;2.97;;;0.80;;
76107;SDS011;64834;52.516;10.528;2022-12-29T15:59:51;3.03;;;0.80;;
76107;SDS011;64834;52.516;10.528;2022-12-29T16:02:16;2.05;;;0.57;;
76107;SDS011;64834;52.516;10.528;2022-12-29T16:04:42;3.55;;;0.70;;
76107;SDS011;64834;52.516;10.528;2022-12-29T16:07:20;4.18;;;1.20;;
76107;SDS011;64834;52.516;10.528;2022-12-29T16:09:53;1.23;;;0.65;;
76107;SDS011;64834;52.516;10.528;2022-12-29T16:12:21;3.17;;;0.85;;
76107;SDS011;64834;52.516;10.528;2022-12-29T16:14:54;2.35;;;1.40;;
76107;SDS011;64834;52.516;10.528;2022-12-29T16:17:27;2.42;;;1.00;;
76107;SDS011;64834;52.516;10.528;2022-12-29T16:20:06;7.60;;;1.10;;
76107;SDS011;64834;52.516;10.528;2022-12-29T16:22:45;4.13;;;0.70;;
76107;SDS011;64834;52.516;10.528;2022-12-29T16:25:33;4.60;;;0.93;;
76107;SDS011;64834;52.516;10.528;2022-12-29T16:28:02;5.25;;;1.10;;
76107;SDS011;64834;52.516;10.528;2022-12-29T16:30:41;3.47;;;1.00;;